CFG8EP LEBL-EDDF
Flight info
| Callsign | CFG8EP |
|---|---|
| Flight time | 1h 37m |
| Altitude | 36000 |
| Route | DALIN DCT PIVUS DCT DIBER DCT ADITA DCT MAXIR DCT LUSOL DCT BODRU DCT OKTET DCT IRMAR DCT KINES DCT VANAS DCT ESOKO DCT GODRA/N0434F350 DCT LADOL/N0436F360 T163 EMPAX EMPAX5B |
| Aircraft | A321/M-SDE2E3FGHIJ1RWXYZ/LB1 |
Departure
| Time | 2026-05-05 14:49 |
|---|---|
| Airport | Josep Tarradellas Barcelona-El Prat Airport (LEBL) |
Arrival
| Time | 2026-05-05 16:26 |
|---|---|
| Airport | Frankfurt Main Airport (EDDF) |
| Time | Latitude | Longitude | Altitude | Speed | Heading |
|---|---|---|---|---|---|
| 2026-05-05 14:19 | 41.30254 | 2.07876 | 22 ft | 0 kts | 39° |
| 2026-05-05 14:36 | 41.30253 | 2.07875 | 21 ft | 2 kts | 39° |
| 2026-05-05 14:36 | 41.30233 | 2.07859 | 21 ft | 2 kts | 16° |
| 2026-05-05 14:37 | 41.30212 | 2.07855 | 22 ft | 4 kts | 341° |
| 2026-05-05 14:37 | 41.30191 | 2.07866 | 23 ft | 4 kts | 335° |
| 2026-05-05 14:37 | 41.30167 | 2.07881 | 22 ft | 4 kts | 336° |
| 2026-05-05 14:37 | 41.30144 | 2.07896 | 22 ft | 4 kts | 338° |
| 2026-05-05 14:38 | 41.30120 | 2.07901 | 22 ft | 4 kts | 25° |
| 2026-05-05 14:38 | 41.30105 | 2.07880 | 19 ft | 4 kts | 65° |
| 2026-05-05 14:38 | 41.30096 | 2.07853 | 19 ft | 0 kts | 65° |
| 2026-05-05 14:42 | 41.30098 | 2.07858 | 20 ft | 3 kts | 65° |
| 2026-05-05 14:42 | 41.30111 | 2.07920 | 18 ft | 9 kts | 93° |
| 2026-05-05 14:42 | 41.30064 | 2.07973 | 17 ft | 10 kts | 152° |
| 2026-05-05 14:42 | 41.30020 | 2.08032 | 18 ft | 8 kts | 88° |
| 2026-05-05 14:43 | 41.30043 | 2.08105 | 18 ft | 9 kts | 66° |
| 2026-05-05 14:43 | 41.30068 | 2.08176 | 19 ft | 9 kts | 65° |
| 2026-05-05 14:43 | 41.30037 | 2.08272 | 18 ft | 17 kts | 158° |
| 2026-05-05 14:43 | 41.29908 | 2.08343 | 24 ft | 20 kts | 155° |
| 2026-05-05 14:44 | 41.29771 | 2.08425 | 17 ft | 24 kts | 155° |
| 2026-05-05 14:44 | 41.29613 | 2.08521 | 19 ft | 25 kts | 155° |
| 2026-05-05 14:44 | 41.29451 | 2.08620 | 15 ft | 27 kts | 155° |
| 2026-05-05 14:44 | 41.29285 | 2.08720 | 18 ft | 26 kts | 156° |
| 2026-05-05 14:45 | 41.29116 | 2.08820 | 16 ft | 27 kts | 155° |
| 2026-05-05 14:45 | 41.29004 | 2.08887 | 16 ft | 16 kts | 156° |
| 2026-05-05 14:45 | 41.28946 | 2.08963 | 17 ft | 11 kts | 90° |
| 2026-05-05 14:45 | 41.28985 | 2.09084 | 17 ft | 19 kts | 63° |
| 2026-05-05 14:46 | 41.29050 | 2.09268 | 19 ft | 23 kts | 66° |
| 2026-05-05 14:46 | 41.29114 | 2.09461 | 17 ft | 23 kts | 66° |
| 2026-05-05 14:46 | 41.29181 | 2.09660 | 18 ft | 24 kts | 65° |
| 2026-05-05 14:46 | 41.29250 | 2.09862 | 17 ft | 24 kts | 66° |
| 2026-05-05 14:47 | 41.29298 | 2.09971 | 17 ft | 12 kts | 59° |
| 2026-05-05 14:47 | 41.29336 | 2.10075 | 17 ft | 13 kts | 65° |
| 2026-05-05 14:47 | 41.29369 | 2.10191 | 16 ft | 14 kts | 83° |
| 2026-05-05 14:47 | 41.29307 | 2.10286 | 13 ft | 16 kts | 156° |
| 2026-05-05 14:48 | 41.29228 | 2.10329 | 15 ft | 9 kts | 170° |
| 2026-05-05 14:48 | 41.29206 | 2.10289 | 15 ft | 8 kts | 246° |
| 2026-05-05 14:48 | 41.29088 | 2.09948 | 22 ft | 82 kts | 245° |
| 2026-05-05 14:48 | 41.28752 | 2.08966 | 21 ft | 148 kts | 245° |
| 2026-05-05 14:49 | 41.28291 | 2.07603 | 455 ft | 162 kts | 242° |
| 2026-05-05 14:49 | 41.27603 | 2.06470 | 1237 ft | 158 kts | 212° |
| 2026-05-05 14:49 | 41.26505 | 2.06098 | 1706 ft | 174 kts | 181° |
| 2026-05-05 14:49 | 41.25217 | 2.06084 | 2091 ft | 196 kts | 183° |
| 2026-05-05 14:50 | 41.23784 | 2.06017 | 2591 ft | 213 kts | 184° |
| 2026-05-05 14:50 | 41.22297 | 2.05940 | 3522 ft | 215 kts | 184° |
| 2026-05-05 14:50 | 41.20799 | 2.05863 | 4487 ft | 217 kts | 184° |
| 2026-05-05 14:50 | 41.19285 | 2.05783 | 5421 ft | 219 kts | 185° |
| 2026-05-05 14:51 | 41.17753 | 2.05705 | 6359 ft | 221 kts | 185° |
| 2026-05-05 14:51 | 41.16168 | 2.05624 | 7070 ft | 235 kts | 185° |
| 2026-05-05 14:51 | 41.14513 | 2.05542 | 7942 ft | 240 kts | 185° |
| 2026-05-05 14:51 | 41.12832 | 2.05461 | 8948 ft | 242 kts | 185° |
| 2026-05-05 14:52 | 41.11144 | 2.05378 | 9952 ft | 243 kts | 186° |
| 2026-05-05 14:52 | 41.09449 | 2.05294 | 10875 ft | 245 kts | 186° |
| 2026-05-05 14:52 | 41.07738 | 2.05209 | 11799 ft | 247 kts | 186° |
| 2026-05-05 14:52 | 41.06025 | 2.05140 | 12660 ft | 255 kts | 184° |
| 2026-05-05 14:53 | 41.04203 | 2.05732 | 13054 ft | 291 kts | 155° |
| 2026-05-05 14:53 | 41.02760 | 2.07692 | 13900 ft | 309 kts | 123° |
| 2026-05-05 14:53 | 41.02212 | 2.10496 | 14730 ft | 326 kts | 93° |
| 2026-05-05 14:53 | 41.02750 | 2.13451 | 15478 ft | 339 kts | 63° |
| 2026-05-05 14:54 | 41.04181 | 2.15947 | 16207 ft | 345 kts | 42° |
| 2026-05-05 14:54 | 41.05996 | 2.18061 | 16970 ft | 349 kts | 39° |
| 2026-05-05 14:54 | 41.07820 | 2.20224 | 17723 ft | 356 kts | 43° |
| 2026-05-05 14:54 | 41.09521 | 2.22649 | 18428 ft | 362 kts | 49° |
| 2026-05-05 14:55 | 41.11093 | 2.25286 | 19095 ft | 368 kts | 53° |
| 2026-05-05 14:55 | 41.12608 | 2.28050 | 19762 ft | 372 kts | 54° |
| 2026-05-05 14:55 | 41.14119 | 2.30876 | 20397 ft | 378 kts | 54° |
| 2026-05-05 14:55 | 41.15665 | 2.33733 | 21040 ft | 384 kts | 54° |
| 2026-05-05 14:56 | 41.17255 | 2.36606 | 21688 ft | 389 kts | 53° |
| 2026-05-05 14:56 | 41.18891 | 2.39500 | 22322 ft | 395 kts | 52° |
| 2026-05-05 14:56 | 41.20566 | 2.42421 | 22962 ft | 400 kts | 52° |
| 2026-05-05 14:56 | 41.22248 | 2.45336 | 23565 ft | 405 kts | 52° |
| 2026-05-05 14:57 | 41.23974 | 2.48325 | 24079 ft | 410 kts | 52° |
| 2026-05-05 14:57 | 41.25722 | 2.51354 | 24592 ft | 415 kts | 52° |
| 2026-05-05 14:57 | 41.27484 | 2.54421 | 25102 ft | 420 kts | 52° |
| 2026-05-05 14:57 | 41.29266 | 2.57534 | 25615 ft | 425 kts | 52° |
| 2026-05-05 14:58 | 41.31065 | 2.60681 | 26112 ft | 430 kts | 52° |
| 2026-05-05 14:58 | 41.32290 | 2.62828 | 26479 ft | 433 kts | 52° |
| 2026-05-05 14:58 | 41.34120 | 2.66035 | 27010 ft | 437 kts | 52° |
| 2026-05-05 14:58 | 41.35966 | 2.69279 | 27458 ft | 441 kts | 53° |
| 2026-05-05 14:59 | 41.37831 | 2.72561 | 27936 ft | 446 kts | 53° |
| 2026-05-05 14:59 | 41.39710 | 2.75875 | 28401 ft | 451 kts | 53° |
| 2026-05-05 14:59 | 41.41583 | 2.79181 | 28853 ft | 455 kts | 53° |
| 2026-05-05 14:59 | 41.43503 | 2.82568 | 29303 ft | 460 kts | 53° |
| 2026-05-05 15:00 | 41.45436 | 2.85983 | 29737 ft | 464 kts | 53° |
| 2026-05-05 15:00 | 41.47387 | 2.89441 | 30128 ft | 468 kts | 53° |
| 2026-05-05 15:00 | 41.49348 | 2.92911 | 30594 ft | 469 kts | 53° |
| 2026-05-05 15:00 | 41.51311 | 2.96379 | 31119 ft | 468 kts | 53° |
| 2026-05-05 15:01 | 41.53263 | 2.99841 | 31698 ft | 466 kts | 53° |
| 2026-05-05 15:01 | 41.55222 | 3.03322 | 31966 ft | 473 kts | 53° |
| 2026-05-05 15:01 | 41.59252 | 3.10497 | 32191 ft | 492 kts | 53° |
| 2026-05-05 15:02 | 41.61322 | 3.14188 | 32324 ft | 502 kts | 53° |
| 2026-05-05 15:02 | 41.63438 | 3.17954 | 32456 ft | 511 kts | 53° |
| 2026-05-05 15:02 | 41.65584 | 3.21785 | 32589 ft | 519 kts | 54° |
| 2026-05-05 15:02 | 41.67764 | 3.25686 | 32722 ft | 528 kts | 54° |
| 2026-05-05 15:03 | 41.69978 | 3.29657 | 32875 ft | 535 kts | 54° |
| 2026-05-05 15:03 | 41.72186 | 3.33686 | 33216 ft | 538 kts | 57° |
| 2026-05-05 15:03 | 41.74082 | 3.37989 | 33715 ft | 535 kts | 66° |
| 2026-05-05 15:03 | 41.75620 | 3.42512 | 34176 ft | 533 kts | 69° |
| 2026-05-05 15:04 | 41.77119 | 3.47042 | 34637 ft | 532 kts | 69° |
| 2026-05-05 15:04 | 41.78622 | 3.51565 | 35111 ft | 530 kts | 68° |
| 2026-05-05 15:04 | 41.80117 | 3.56062 | 35579 ft | 528 kts | 68° |
| 2026-05-05 15:04 | 41.81608 | 3.60549 | 36056 ft | 525 kts | 68° |
| 2026-05-05 15:05 | 41.84564 | 3.69474 | 36980 ft | 521 kts | 67° |
| 2026-05-05 15:05 | 41.86026 | 3.73905 | 37424 ft | 519 kts | 67° |
| 2026-05-05 15:05 | 41.87480 | 3.78330 | 37806 ft | 518 kts | 67° |
| 2026-05-05 15:06 | 41.88929 | 3.82750 | 37872 ft | 516 kts | 67° |
| 2026-05-05 15:06 | 41.91793 | 3.91499 | 37917 ft | 514 kts | 67° |
| 2026-05-05 15:07 | 41.94678 | 4.00345 | 37910 ft | 513 kts | 67° |
| 2026-05-05 15:07 | 41.97528 | 4.09140 | 37910 ft | 513 kts | 67° |
| 2026-05-05 15:08 | 42.00370 | 4.17884 | 37915 ft | 513 kts | 67° |
| 2026-05-05 15:08 | 42.03227 | 4.26692 | 37894 ft | 514 kts | 67° |
| 2026-05-05 15:09 | 42.06082 | 4.35514 | 37902 ft | 515 kts | 65° |
| 2026-05-05 15:09 | 42.09974 | 4.43577 | 37909 ft | 513 kts | 46° |
| 2026-05-05 15:10 | 42.15161 | 4.50120 | 37938 ft | 511 kts | 39° |
| 2026-05-05 15:10 | 42.20482 | 4.56489 | 37936 ft | 511 kts | 39° |
| 2026-05-05 15:11 | 42.25785 | 4.62902 | 37914 ft | 512 kts | 39° |
| 2026-05-05 15:11 | 42.31084 | 4.69341 | 37945 ft | 512 kts | 39° |
| 2026-05-05 15:12 | 42.36378 | 4.75771 | 37946 ft | 512 kts | 39° |
| 2026-05-05 15:12 | 42.41673 | 4.82204 | 37947 ft | 511 kts | 39° |
| 2026-05-05 15:13 | 42.46957 | 4.88644 | 37947 ft | 511 kts | 39° |
| 2026-05-05 15:13 | 42.52201 | 4.95052 | 37958 ft | 511 kts | 40° |
| 2026-05-05 15:14 | 42.57460 | 5.01490 | 37906 ft | 508 kts | 40° |
| 2026-05-05 15:14 | 42.62711 | 5.07931 | 37924 ft | 508 kts | 40° |
| 2026-05-05 15:15 | 42.67952 | 5.14382 | 37937 ft | 509 kts | 40° |
| 2026-05-05 15:15 | 42.73193 | 5.20850 | 37941 ft | 509 kts | 40° |
| 2026-05-05 15:16 | 42.78435 | 5.27323 | 37944 ft | 509 kts | 40° |
| 2026-05-05 15:16 | 42.83680 | 5.33819 | 37915 ft | 509 kts | 40° |
| 2026-05-05 15:17 | 42.88914 | 5.40327 | 37939 ft | 509 kts | 40° |
| 2026-05-05 15:17 | 42.94146 | 5.46841 | 37963 ft | 509 kts | 40° |
| 2026-05-05 15:18 | 42.99368 | 5.53361 | 37958 ft | 508 kts | 40° |
| 2026-05-05 15:18 | 43.04577 | 5.59895 | 37955 ft | 508 kts | 40° |
| 2026-05-05 15:19 | 43.09781 | 5.66420 | 37974 ft | 507 kts | 40° |
| 2026-05-05 15:19 | 43.14986 | 5.72948 | 37937 ft | 506 kts | 40° |
| 2026-05-05 15:20 | 43.20163 | 5.79478 | 37960 ft | 506 kts | 40° |
| 2026-05-05 15:20 | 43.25339 | 5.86024 | 37949 ft | 506 kts | 40° |
| 2026-05-05 15:21 | 43.30508 | 5.92563 | 37969 ft | 505 kts | 40° |
| 2026-05-05 15:21 | 43.35726 | 5.98901 | 37960 ft | 501 kts | 32° |
| 2026-05-05 15:22 | 43.41823 | 6.03254 | 37948 ft | 490 kts | 13° |
| 2026-05-05 15:22 | 43.48403 | 6.04950 | 37957 ft | 476 kts | 358° |
| 2026-05-05 15:23 | 43.55020 | 6.05582 | 37946 ft | 477 kts | 358° |
| 2026-05-05 15:23 | 43.61632 | 6.06259 | 37939 ft | 477 kts | 358° |
| 2026-05-05 15:24 | 43.68249 | 6.06945 | 37951 ft | 477 kts | 358° |
| 2026-05-05 15:24 | 43.74866 | 6.07756 | 37936 ft | 481 kts | 4° |
| 2026-05-05 15:25 | 43.81287 | 6.10646 | 37923 ft | 492 kts | 22° |
| 2026-05-05 15:25 | 43.87429 | 6.14837 | 37951 ft | 492 kts | 22° |
| 2026-05-05 15:26 | 43.93572 | 6.19030 | 37948 ft | 492 kts | 22° |
| 2026-05-05 15:26 | 43.99677 | 6.23210 | 37941 ft | 492 kts | 22° |
| 2026-05-05 15:27 | 44.05851 | 6.27445 | 37965 ft | 491 kts | 22° |
| 2026-05-05 15:27 | 44.11940 | 6.31625 | 37953 ft | 492 kts | 23° |
| 2026-05-05 15:28 | 44.18076 | 6.35849 | 37946 ft | 492 kts | 23° |
| 2026-05-05 15:28 | 44.24220 | 6.40096 | 37951 ft | 493 kts | 23° |
| 2026-05-05 15:29 | 44.30372 | 6.44343 | 37951 ft | 494 kts | 23° |
| 2026-05-05 15:29 | 44.36527 | 6.48607 | 37922 ft | 493 kts | 22° |
| 2026-05-05 15:30 | 44.42664 | 6.52871 | 37936 ft | 494 kts | 23° |
| 2026-05-05 15:30 | 44.48814 | 6.57156 | 37963 ft | 493 kts | 23° |
| 2026-05-05 15:31 | 44.54965 | 6.61456 | 37955 ft | 494 kts | 23° |
| 2026-05-05 15:31 | 44.61133 | 6.65770 | 37952 ft | 495 kts | 23° |
| 2026-05-05 15:32 | 44.67294 | 6.70088 | 37964 ft | 495 kts | 24° |
| 2026-05-05 15:32 | 44.73448 | 6.74423 | 37967 ft | 495 kts | 24° |
| 2026-05-05 15:33 | 44.79818 | 6.77868 | 37968 ft | 487 kts | 8° |
| 2026-05-05 15:33 | 44.86457 | 6.78635 | 37944 ft | 474 kts | 352° |
| 2026-05-05 15:34 | 44.93054 | 6.78172 | 37960 ft | 475 kts | 352° |
| 2026-05-05 15:34 | 44.99610 | 6.77738 | 37964 ft | 475 kts | 352° |
| 2026-05-05 15:35 | 45.06202 | 6.77314 | 37947 ft | 474 kts | 352° |
| 2026-05-05 15:35 | 45.12800 | 6.76881 | 37951 ft | 475 kts | 352° |
| 2026-05-05 15:36 | 45.19408 | 6.76440 | 37960 ft | 475 kts | 352° |
| 2026-05-05 15:36 | 45.26013 | 6.75997 | 37948 ft | 475 kts | 352° |
| 2026-05-05 15:37 | 45.32621 | 6.75555 | 37945 ft | 476 kts | 352° |
| 2026-05-05 15:37 | 45.39236 | 6.75117 | 37945 ft | 476 kts | 353° |
| 2026-05-05 15:38 | 45.45878 | 6.76059 | 37947 ft | 485 kts | 12° |
| 2026-05-05 15:38 | 45.52083 | 6.79945 | 37942 ft | 491 kts | 28° |
| 2026-05-05 15:39 | 45.57985 | 6.84866 | 37952 ft | 491 kts | 28° |
| 2026-05-05 15:39 | 45.63844 | 6.89728 | 37966 ft | 490 kts | 28° |
| 2026-05-05 15:40 | 45.69737 | 6.94621 | 37957 ft | 489 kts | 28° |
| 2026-05-05 15:40 | 45.75628 | 6.99532 | 37965 ft | 489 kts | 28° |
| 2026-05-05 15:41 | 45.81498 | 7.04454 | 37975 ft | 489 kts | 29° |
| 2026-05-05 15:41 | 45.87361 | 7.09398 | 37965 ft | 489 kts | 29° |
| 2026-05-05 15:42 | 45.93231 | 7.14332 | 37938 ft | 489 kts | 28° |
| 2026-05-05 15:42 | 45.98122 | 7.18443 | 37913 ft | 490 kts | 28° |
| 2026-05-05 15:43 | 46.04009 | 7.23434 | 37907 ft | 491 kts | 29° |
| 2026-05-05 15:43 | 46.09904 | 7.28454 | 37906 ft | 492 kts | 28° |
| 2026-05-05 15:44 | 46.15799 | 7.33483 | 37918 ft | 492 kts | 29° |
| 2026-05-05 15:44 | 46.21701 | 7.38518 | 37928 ft | 492 kts | 28° |
| 2026-05-05 15:45 | 46.27544 | 7.43513 | 37940 ft | 491 kts | 29° |
| 2026-05-05 15:45 | 46.33435 | 7.48567 | 37941 ft | 491 kts | 29° |
| 2026-05-05 15:46 | 46.39302 | 7.53607 | 37928 ft | 489 kts | 29° |
| 2026-05-05 15:46 | 46.45144 | 7.58636 | 37931 ft | 487 kts | 29° |
| 2026-05-05 15:47 | 46.50968 | 7.63671 | 37921 ft | 486 kts | 29° |
| 2026-05-05 15:47 | 46.56774 | 7.68694 | 37911 ft | 486 kts | 30° |
| 2026-05-05 15:48 | 46.62616 | 7.73644 | 37910 ft | 485 kts | 27° |
| 2026-05-05 15:48 | 46.68552 | 7.78176 | 37906 ft | 484 kts | 25° |
| 2026-05-05 15:49 | 46.74556 | 7.82615 | 37905 ft | 484 kts | 26° |
| 2026-05-05 15:49 | 46.80529 | 7.87146 | 37901 ft | 484 kts | 26° |
| 2026-05-05 15:50 | 46.86473 | 7.91754 | 37900 ft | 483 kts | 27° |
| 2026-05-05 15:50 | 46.92406 | 7.96383 | 37904 ft | 483 kts | 27° |
| 2026-05-05 15:51 | 46.98343 | 8.00992 | 37883 ft | 482 kts | 27° |
| 2026-05-05 15:51 | 47.04276 | 8.05599 | 37901 ft | 482 kts | 27° |
| 2026-05-05 15:52 | 47.10195 | 8.10209 | 37912 ft | 482 kts | 27° |
| 2026-05-05 15:52 | 47.16073 | 8.14812 | 37879 ft | 481 kts | 27° |
| 2026-05-05 15:53 | 47.21978 | 8.19437 | 37870 ft | 481 kts | 27° |
| 2026-05-05 15:53 | 47.27882 | 8.24072 | 37863 ft | 481 kts | 27° |
| 2026-05-05 15:54 | 47.33761 | 8.28714 | 37863 ft | 480 kts | 28° |
| 2026-05-05 15:54 | 47.39650 | 8.33376 | 37844 ft | 480 kts | 27° |
| 2026-05-05 15:55 | 47.45552 | 8.38035 | 37847 ft | 480 kts | 27° |
| 2026-05-05 15:55 | 47.51436 | 8.42706 | 37851 ft | 480 kts | 28° |
| 2026-05-05 15:56 | 47.57315 | 8.47390 | 37896 ft | 479 kts | 28° |
| 2026-05-05 15:56 | 47.63180 | 8.52071 | 37889 ft | 479 kts | 28° |
| 2026-05-05 15:57 | 47.69042 | 8.56755 | 37872 ft | 479 kts | 28° |
| 2026-05-05 15:57 | 47.74908 | 8.61462 | 37872 ft | 478 kts | 28° |
| 2026-05-05 15:58 | 47.80753 | 8.66168 | 37857 ft | 478 kts | 28° |
| 2026-05-05 15:58 | 47.86598 | 8.70876 | 37853 ft | 477 kts | 28° |
| 2026-05-05 15:59 | 47.92438 | 8.75590 | 37852 ft | 477 kts | 28° |
| 2026-05-05 15:59 | 47.98270 | 8.80327 | 37850 ft | 477 kts | 28° |
| 2026-05-05 16:00 | 48.04107 | 8.85086 | 37851 ft | 478 kts | 28° |
| 2026-05-05 16:00 | 48.09946 | 8.89834 | 37854 ft | 477 kts | 28° |
| 2026-05-05 16:01 | 48.15889 | 8.94231 | 37852 ft | 477 kts | 19° |
| 2026-05-05 16:01 | 48.22357 | 8.96190 | 37845 ft | 474 kts | 4° |
| 2026-05-05 16:02 | 48.28933 | 8.97158 | 37613 ft | 475 kts | 4° |
| 2026-05-05 16:02 | 48.32218 | 8.97660 | 37346 ft | 474 kts | 5° |
| 2026-05-05 16:02 | 48.35499 | 8.98170 | 36962 ft | 474 kts | 5° |
| 2026-05-05 16:02 | 48.38794 | 8.98682 | 36098 ft | 479 kts | 5° |
| 2026-05-05 16:03 | 48.42124 | 8.99193 | 35191 ft | 483 kts | 5° |
| 2026-05-05 16:03 | 48.45446 | 8.99701 | 34290 ft | 488 kts | 6° |
| 2026-05-05 16:03 | 48.48832 | 9.00214 | 33347 ft | 490 kts | 6° |
| 2026-05-05 16:03 | 48.52238 | 9.00725 | 32300 ft | 492 kts | 6° |
| 2026-05-05 16:04 | 48.55655 | 9.01242 | 31240 ft | 494 kts | 6° |
| 2026-05-05 16:04 | 48.59075 | 9.01766 | 30134 ft | 496 kts | 6° |
| 2026-05-05 16:04 | 48.62476 | 9.02291 | 28859 ft | 487 kts | 6° |
| 2026-05-05 16:04 | 48.65766 | 9.02894 | 28302 ft | 463 kts | 8° |
| 2026-05-05 16:05 | 48.68888 | 9.03588 | 27631 ft | 445 kts | 9° |
| 2026-05-05 16:05 | 48.71884 | 9.04339 | 26984 ft | 429 kts | 10° |
| 2026-05-05 16:05 | 48.74814 | 9.05108 | 26352 ft | 427 kts | 11° |
| 2026-05-05 16:05 | 48.77733 | 9.05870 | 25723 ft | 425 kts | 10° |
| 2026-05-05 16:06 | 48.80646 | 9.06610 | 25098 ft | 423 kts | 10° |
| 2026-05-05 16:06 | 48.83540 | 9.07321 | 24471 ft | 421 kts | 9° |
| 2026-05-05 16:06 | 48.86424 | 9.08010 | 23857 ft | 419 kts | 9° |
| 2026-05-05 16:06 | 48.89293 | 9.08659 | 23226 ft | 417 kts | 8° |
| 2026-05-05 16:07 | 48.92170 | 9.09165 | 22598 ft | 412 kts | 6° |
| 2026-05-05 16:07 | 48.95001 | 9.09557 | 22058 ft | 406 kts | 5° |
| 2026-05-05 16:07 | 48.97804 | 9.09897 | 21528 ft | 402 kts | 4° |
| 2026-05-05 16:07 | 49.00578 | 9.10226 | 21037 ft | 398 kts | 4° |
| 2026-05-05 16:08 | 49.03327 | 9.10568 | 20532 ft | 395 kts | 5° |
| 2026-05-05 16:08 | 49.06055 | 9.10930 | 20051 ft | 392 kts | 5° |
| 2026-05-05 16:08 | 49.08765 | 9.11311 | 19567 ft | 389 kts | 5° |
| 2026-05-05 16:08 | 49.11448 | 9.11702 | 19091 ft | 386 kts | 5° |
| 2026-05-05 16:09 | 49.14114 | 9.12096 | 18617 ft | 383 kts | 5° |
| 2026-05-05 16:09 | 49.16754 | 9.12484 | 18122 ft | 381 kts | 5° |
| 2026-05-05 16:09 | 49.19345 | 9.12860 | 17599 ft | 378 kts | 4° |
| 2026-05-05 16:09 | 49.21951 | 9.13235 | 17090 ft | 375 kts | 4° |
| 2026-05-05 16:10 | 49.24541 | 9.13604 | 16590 ft | 372 kts | 4° |
| 2026-05-05 16:10 | 49.27145 | 9.13978 | 16072 ft | 372 kts | 4° |
| 2026-05-05 16:10 | 49.29695 | 9.14615 | 15561 ft | 371 kts | 13° |
| 2026-05-05 16:10 | 49.32170 | 9.15500 | 15061 ft | 369 kts | 12° |
| 2026-05-05 16:11 | 49.34660 | 9.16386 | 14555 ft | 366 kts | 12° |
| 2026-05-05 16:11 | 49.42046 | 9.18990 | 13017 ft | 359 kts | 13° |
| 2026-05-05 16:12 | 49.44465 | 9.19842 | 12527 ft | 355 kts | 13° |
| 2026-05-05 16:12 | 49.49239 | 9.21539 | 11568 ft | 349 kts | 13° |
| 2026-05-05 16:13 | 49.56259 | 9.24028 | 10608 ft | 343 kts | 9° |
| 2026-05-05 16:13 | 49.58629 | 9.23997 | 10537 ft | 341 kts | 346° |
| 2026-05-05 16:13 | 49.60830 | 9.22719 | 10454 ft | 339 kts | 333° |
| 2026-05-05 16:14 | 49.65110 | 9.19583 | 10308 ft | 340 kts | 333° |
| 2026-05-05 16:14 | 49.69382 | 9.16447 | 10175 ft | 340 kts | 333° |
| 2026-05-05 16:15 | 49.73671 | 9.13517 | 9992 ft | 340 kts | 345° |
| 2026-05-05 16:15 | 49.78377 | 9.13458 | 9829 ft | 339 kts | 4° |
| 2026-05-05 16:16 | 49.83089 | 9.13672 | 9835 ft | 339 kts | 349° |
| 2026-05-05 16:16 | 49.87649 | 9.11871 | 9837 ft | 337 kts | 344° |
| 2026-05-05 16:17 | 49.92132 | 9.09965 | 9081 ft | 331 kts | 344° |
| 2026-05-05 16:17 | 49.94336 | 9.09033 | 8581 ft | 327 kts | 344° |
| 2026-05-05 16:18 | 49.98687 | 9.07217 | 7581 ft | 321 kts | 344° |
| 2026-05-05 16:18 | 50.00837 | 9.06328 | 7095 ft | 318 kts | 344° |
| 2026-05-05 16:18 | 50.05044 | 9.04608 | 6349 ft | 307 kts | 343° |
| 2026-05-05 16:19 | 50.07088 | 9.03781 | 5996 ft | 300 kts | 344° |
| 2026-05-05 16:19 | 50.09047 | 9.02794 | 5692 ft | 292 kts | 330° |
| 2026-05-05 16:19 | 50.11481 | 8.98214 | 5163 ft | 273 kts | 291° |
| 2026-05-05 16:20 | 50.11920 | 8.92636 | 4664 ft | 253 kts | 258° |
| 2026-05-05 16:20 | 50.10856 | 8.87627 | 4242 ft | 238 kts | 248° |
| 2026-05-05 16:21 | 50.09742 | 8.82885 | 3623 ft | 223 kts | 249° |
| 2026-05-05 16:22 | 50.08315 | 8.76833 | 2841 ft | 177 kts | 249° |
| 2026-05-05 16:22 | 50.07527 | 8.73501 | 2409 ft | 150 kts | 249° |
| 2026-05-05 16:23 | 50.06880 | 8.70771 | 2042 ft | 126 kts | 249° |
| 2026-05-05 16:23 | 50.06580 | 8.69506 | 1877 ft | 123 kts | 249° |
| 2026-05-05 16:23 | 50.05995 | 8.67066 | 1585 ft | 120 kts | 249° |
| 2026-05-05 16:24 | 50.05701 | 8.65832 | 1434 ft | 123 kts | 249° |
| 2026-05-05 16:24 | 50.05397 | 8.64574 | 1235 ft | 124 kts | 249° |
| 2026-05-05 16:24 | 50.04815 | 8.62060 | 883 ft | 123 kts | 249° |
| 2026-05-05 16:25 | 50.04509 | 8.60798 | 741 ft | 126 kts | 249° |
| 2026-05-05 16:25 | 50.03923 | 8.58311 | 384 ft | 121 kts | 249° |
| 2026-05-05 16:25 | 50.03660 | 8.57212 | 357 ft | 85 kts | 249° |
| 2026-05-05 16:26 | 50.03437 | 8.56169 | 354 ft | 33 kts | 265° |
| 2026-05-05 16:26 | 50.03471 | 8.55731 | 347 ft | 1 kts | 279° |
| 2026-05-05 16:27 | 50.03471 | 8.55729 | 347 ft | 0 kts | 279° |
| 2026-05-05 16:27 | 50.03472 | 8.55726 | 347 ft | 0 kts | 279° |
| 2026-05-05 16:27 | 50.03482 | 8.55636 | 348 ft | 14 kts | 280° |
| 2026-05-05 16:27 | 50.03491 | 8.55481 | 350 ft | 16 kts | 261° |
| 2026-05-05 16:28 | 50.03439 | 8.55256 | 350 ft | 27 kts | 249° |
| 2026-05-05 16:28 | 50.03393 | 8.55061 | 349 ft | 29 kts | 250° |
| 2026-05-05 16:28 | 50.03325 | 8.54770 | 335 ft | 29 kts | 250° |
| 2026-05-05 16:28 | 50.03277 | 8.54567 | 334 ft | 13 kts | 251° |
| 2026-05-05 16:29 | 50.03322 | 8.54474 | 335 ft | 12 kts | 338° |
| 2026-05-05 16:29 | 50.03429 | 8.54414 | 352 ft | 18 kts | 340° |
| 2026-05-05 16:29 | 50.03543 | 8.54347 | 344 ft | 18 kts | 340° |
| 2026-05-05 16:29 | 50.03631 | 8.54296 | 346 ft | 7 kts | 340° |
| 2026-05-05 16:30 | 50.03649 | 8.54305 | 346 ft | 0 kts | 37° |
| 2026-05-05 16:31 | 50.03666 | 8.54341 | 351 ft | 11 kts | 65° |
| 2026-05-05 16:31 | 50.03703 | 8.54499 | 345 ft | 16 kts | 70° |
| 2026-05-05 16:31 | 50.03739 | 8.54658 | 351 ft | 15 kts | 70° |
| 2026-05-05 16:32 | 50.03774 | 8.54803 | 351 ft | 14 kts | 69° |
| 2026-05-05 16:32 | 50.03804 | 8.54924 | 354 ft | 5 kts | 70° |
| 2026-05-05 16:32 | 50.03805 | 8.54931 | 353 ft | 0 kts | 70° |
| 2026-05-05 16:33 | 50.03809 | 8.54947 | 356 ft | 4 kts | 70° |
| 2026-05-05 16:33 | 50.03822 | 8.55003 | 351 ft | 7 kts | 70° |
| 2026-05-05 16:33 | 50.03845 | 8.55099 | 354 ft | 11 kts | 70° |
| 2026-05-05 16:33 | 50.03877 | 8.55234 | 352 ft | 15 kts | 69° |
| 2026-05-05 16:34 | 50.03919 | 8.55412 | 353 ft | 19 kts | 68° |
| 2026-05-05 16:34 | 50.03964 | 8.55601 | 355 ft | 18 kts | 69° |
| 2026-05-05 16:34 | 50.04004 | 8.55762 | 353 ft | 14 kts | 70° |
| 2026-05-05 16:34 | 50.04031 | 8.55877 | 357 ft | 6 kts | 70° |
| 2026-05-05 16:35 | 50.04032 | 8.55883 | 357 ft | 0 kts | 70° |
| 2026-05-05 16:35 | 50.04034 | 8.55892 | 353 ft | 3 kts | 70° |
| 2026-05-05 16:36 | 50.04048 | 8.55936 | 357 ft | 6 kts | 57° |
| 2026-05-05 16:36 | 50.04086 | 8.55966 | 356 ft | 7 kts | 4° |
| 2026-05-05 16:36 | 50.04139 | 8.55945 | 357 ft | 9 kts | 340° |
| 2026-05-05 16:36 | 50.04161 | 8.55932 | 354 ft | 0 kts | 340° |
| 2026-05-05 16:37 | 50.04163 | 8.55932 | 354 ft | 1 kts | 340° |
| 2026-05-05 16:37 | 50.04181 | 8.55921 | 354 ft | 4 kts | 338° |
| 2026-05-05 16:37 | 50.04208 | 8.55883 | 357 ft | 7 kts | 300° |
| 2026-05-05 16:37 | 50.04202 | 8.55783 | 357 ft | 12 kts | 249° |
| 2026-05-05 16:38 | 50.04174 | 8.55665 | 355 ft | 12 kts | 250° |
| 2026-05-05 16:38 | 50.04136 | 8.55579 | 355 ft | 2 kts | 183° |
| 2026-05-05 16:38 | 50.04124 | 8.55584 | 357 ft | 2 kts | 166° |
| 2026-05-05 16:38 | 50.04099 | 8.55598 | 355 ft | 5 kts | 160° |
| 2026-05-05 16:39 | 50.04072 | 8.55613 | 355 ft | 2 kts | 160° |
| 2026-05-05 16:39 | 50.04067 | 8.55616 | 354 ft | 2 kts | 160° |
| 2026-05-05 16:39 | 50.04065 | 8.55617 | 353 ft | 0 kts | 160° |